Time;durP1;ratioP1;P1;durP2;ratioP2;P2;SDS_P1;SDS_P2;PMS_P1;PMS_P2;Temp;Humidity;BMP_temperature;BMP_pressure;BME280_temperature;BME280_humidity;BME280_pressure;Samples;Min_cycle;Max_cycle;Signal;HPM_P1;HPM_P2
2022/03/06 00:02:18;;;;;;;;;;;-5.50;98.40;;;;;;5053929;28;19912;-74
2022/03/06 00:04:43;;;;;;;;;;;-5.70;98.70;;;;;;5053680;28;19967;-74
2022/03/06 00:07:08;;;;;;;;;;;-5.60;99.60;;;;;;5053671;28;19978;-74
2022/03/06 00:09:34;;;;;;;;;;;-5.70;99.60;;;;;;5053762;28;20985;-74
2022/03/06 00:11:59;;;;;;;;;;;-5.60;99.40;;;;;;5053677;28;19916;-74
2022/03/06 00:14:25;;;;;;;;;;;-5.50;99.60;;;;;;5053484;28;19909;-74
2022/03/06 00:16:52;;;;;;;;;;;-5.60;99.90;;;;;;5053530;28;20007;-74
2022/03/06 00:19:17;;;;;;;;;;;-5.60;99.90;;;;;;5053344;28;19921;-74
2022/03/06 00:21:43;;;;;;;;;;;-5.60;99.90;;;;;;5053368;28;19913;-74
2022/03/06 00:24:09;;;;;;;;;;;-5.50;99.90;;;;;;5044148;28;19908;-73
2022/03/06 00:26:35;;;;;;;;;;;-5.60;99.90;;;;;;5045515;28;19916;-74
2022/03/06 00:29:00;;;;;;;;;;;-5.60;99.80;;;;;;5034243;28;19963;-74
2022/03/06 00:31:26;;;;;;;;;;;-5.50;99.90;;;;;;5034175;28;19910;-74
2022/03/06 00:33:51;;;;;;;;;;;-5.60;99.90;;;;;;5034026;28;20438;-74
2022/03/06 00:36:17;;;;;;;;;;;-5.60;99.90;;;;;;5034026;28;20011;-74
2022/03/06 00:38:42;;;;;;;;;;;-5.50;99.90;;;;;;5034013;28;19952;-74
2022/03/06 00:41:08;;;;;;;;;;;-5.50;99.90;;;;;;5033994;28;19963;-74
2022/03/06 00:43:33;;;;;;;;;;;-5.60;99.90;;;;;;5033800;28;19916;-74
2022/03/06 00:45:59;;;;;;;;;;;-5.70;99.90;;;;;;5034083;28;20348;-74
2022/03/06 00:48:24;;;;;;;;;;;-5.90;99.90;;;;;;5032554;28;20418;-74
2022/03/06 00:50:50;;;;;;;;;;;-5.90;99.90;;;;;;5033777;28;19910;-73
2022/03/06 00:53:16;;;;;;;;;;;-5.90;99.90;;;;;;5033180;28;19916;-74
2022/03/06 00:55:41;;;;;;;;;;;-5.90;99.90;;;;;;5041962;28;19910;-74
2022/03/06 00:58:07;;;;;;;;;;;-6.10;99.90;;;;;;5033883;28;19917;-73
2022/03/06 01:00:35;;;;;;;;;;;-6.20;99.90;;;;;;5032472;28;19909;-74
2022/03/06 01:03:02;;;;;;;;;;;-5.90;99.90;;;;;;5033545;28;19909;-73
2022/03/06 01:05:27;;;;;;;;;;;-5.90;99.90;;;;;;5045426;28;19924;-74
2022/03/06 01:07:53;;;;;;;;;;;-5.90;99.90;;;;;;5052613;28;19908;-74
2022/03/06 01:10:19;;;;;;;;;;;-5.80;99.90;;;;;;5052458;28;19952;-74
2022/03/06 01:12:45;;;;;;;;;;;-6.00;99.90;;;;;;5052433;28;20370;-73
2022/03/06 01:15:10;;;;;;;;;;;-6.20;99.90;;;;;;5040793;28;19916;-74
2022/03/06 01:17:36;;;;;;;;;;;-6.30;99.90;;;;;;5033299;28;19917;-74
2022/03/06 01:20:02;;;;;;;;;;;-6.30;99.90;;;;;;5031981;28;19952;-74
2022/03/06 01:22:27;;;;;;;;;;;-6.30;99.90;;;;;;5033096;28;20290;-73
2022/03/06 01:24:53;;;;;;;;;;;-6.40;99.90;;;;;;5040608;28;19918;-74
2022/03/06 01:27:18;;;;;;;;;;;-6.10;99.90;;;;;;5038625;28;19920;-73
2022/03/06 01:29:44;;;;;;;;;;;-6.10;99.90;;;;;;5031935;28;20373;-73
2022/03/06 01:32:09;;;;;;;;;;;-6.10;99.90;;;;;;5033055;28;20015;-73
2022/03/06 01:34:35;;;;;;;;;;;-6.20;99.90;;;;;;5032902;28;19925;-74
2022/03/06 01:37:00;;;;;;;;;;;-6.20;99.90;;;;;;5033033;28;19919;-74
2022/03/06 01:39:26;;;;;;;;;;;-6.10;99.90;;;;;;5032850;28;19913;-74
2022/03/06 01:41:51;;;;;;;;;;;-6.20;99.90;;;;;;5032884;28;19948;-74
2022/03/06 01:44:17;;;;;;;;;;;-6.30;99.90;;;;;;5032661;28;19913;-73
2022/03/06 01:46:45;;;;;;;;;;;-6.30;99.90;;;;;;5032880;28;19910;-72
2022/03/06 01:49:10;;;;;;;;;;;-6.40;99.90;;;;;;5032819;28;20374;-72
2022/03/06 01:51:35;;;;;;;;;;;-6.50;99.90;;;;;;5032505;28;19975;-72
2022/03/06 01:54:01;;;;;;;;;;;-6.50;99.90;;;;;;5040479;28;19909;-72
2022/03/06 01:56:27;;;;;;;;;;;-6.60;99.90;;;;;;5050942;28;19913;-72
2022/03/06 01:58:53;;;;;;;;;;;-6.50;99.90;;;;;;5032796;28;19920;-72
2022/03/06 02:01:18;;;;;;;;;;;-6.50;99.90;;;;;;5032554;28;19916;-72
2022/03/06 02:03:44;;;;;;;;;;;-6.50;99.90;;;;;;5032303;28;19940;-72
2022/03/06 02:06:09;;;;;;;;;;;-6.40;99.90;;;;;;5032449;28;19913;-72
2022/03/06 02:08:35;;;;;;;;;;;-6.40;99.90;;;;;;5038127;28;19917;-72
2022/03/06 02:11:00;;;;;;;;;;;-6.40;99.90;;;;;;5032598;28;19909;-72
2022/03/06 02:13:26;;;;;;;;;;;-6.30;99.90;;;;;;5032036;28;19909;-72
2022/03/06 02:15:52;;;;;;;;;;;-6.20;99.90;;;;;;5044391;28;20374;-72
2022/03/06 02:18:19;;;;;;;;;;;-6.30;99.90;;;;;;5051264;28;19928;-72
2022/03/06 02:20:45;;;;;;;;;;;-6.30;99.90;;;;;;5050771;28;19972;-72
2022/03/06 02:23:10;;;;;;;;;;;-6.30;99.90;;;;;;5048392;28;19908;-72
2022/03/06 02:25:36;;;;;;;;;;;-6.40;99.90;;;;;;5040239;28;19956;-72
2022/03/06 02:28:06;;;;;;;;;;;-6.50;99.90;;;;;;5032797;28;19917;-73
2022/03/06 02:30:33;;;;;;;;;;;-6.50;99.90;;;;;;5030946;28;19959;-71
2022/03/06 02:32:59;;;;;;;;;;;-6.60;99.90;;;;;;5031956;28;19972;-72
2022/03/06 02:35:25;;;;;;;;;;;-6.60;99.90;;;;;;5031843;28;19913;-72
2022/03/06 02:37:51;;;;;;;;;;;-6.50;99.90;;;;;;5032065;28;19920;-72
2022/03/06 02:40:18;;;;;;;;;;;-6.30;99.90;;;;;;5030917;28;19913;-72
2022/03/06 02:42:45;;;;;;;;;;;-6.10;99.90;;;;;;5032394;28;20380;-72
2022/03/06 02:45:11;;;;;;;;;;;-6.00;99.90;;;;;;5031937;28;19916;-72
2022/03/06 02:47:37;;;;;;;;;;;-6.00;99.90;;;;;;5031823;28;20939;-72
2022/03/06 02:50:05;;;;;;;;;;;-6.30;99.90;;;;;;5032061;28;19983;-72
2022/03/06 02:52:30;;;;;;;;;;;-6.50;99.90;;;;;;5031493;28;19909;-72
2022/03/06 02:54:55;;;;;;;;;;;-6.60;99.90;;;;;;5045825;28;19963;-72
2022/03/06 02:57:21;;;;;;;;;;;-6.50;99.90;;;;;;5036262;28;19913;-72
2022/03/06 02:59:46;;;;;;;;;;;-6.50;99.90;;;;;;5031926;28;20313;-72
2022/03/06 03:02:12;;;;;;;;;;;-6.40;99.90;;;;;;5031682;28;19949;-72
2022/03/06 03:04:38;;;;;;;;;;;-6.30;99.90;;;;;;5031597;28;19912;-72
2022/03/06 03:07:05;;;;;;;;;;;-6.30;99.90;;;;;;5037479;28;19909;-72
2022/03/06 03:09:30;;;;;;;;;;;-6.30;99.90;;;;;;5031828;28;19955;-72
2022/03/06 03:11:55;;;;;;;;;;;-6.30;99.90;;;;;;5031630;28;20003;-72
2022/03/06 03:14:21;;;;;;;;;;;-6.50;99.90;;;;;;5031452;28;20366;-72
2022/03/06 03:16:47;;;;;;;;;;;-6.80;99.90;;;;;;5031420;28;19928;-72
2022/03/06 03:19:12;;;;;;;;;;;-6.80;99.90;;;;;;5031923;28;20374;-72
2022/03/06 03:21:38;;;;;;;;;;;-6.80;99.90;;;;;;5031679;28;19910;-73
2022/03/06 03:24:04;;;;;;;;;;;-6.80;99.90;;;;;;5039633;28;19927;-72
2022/03/06 03:26:29;;;;;;;;;;;-6.80;99.90;;;;;;5043281;28;19908;-72
2022/03/06 03:28:55;;;;;;;;;;;-6.70;99.90;;;;;;5031730;28;20390;-72
2022/03/06 03:31:20;;;;;;;;;;;-6.70;99.90;;;;;;5031762;28;19909;-72
2022/03/06 03:33:46;;;;;;;;;;;-6.60;99.90;;;;;;5035029;28;19913;-72
2022/03/06 03:36:12;;;;;;;;;;;-6.70;99.90;;;;;;5035566;28;19909;-72
2022/03/06 03:38:38;;;;;;;;;;;-6.70;99.90;;;;;;5035159;28;20428;-72
2022/03/06 03:41:04;;;;;;;;;;;-6.80;99.90;;;;;;5035306;28;19909;-72
2022/03/06 03:43:29;;;;;;;;;;;-6.70;99.90;;;;;;5034906;28;19909;-71
2022/03/06 03:45:57;;;;;;;;;;;-6.60;99.90;;;;;;5035086;28;20281;-72
2022/03/06 03:48:27;;;;;;;;;;;-6.70;99.90;;;;;;5035329;28;19913;-72
2022/03/06 03:50:53;;;;;;;;;;;-6.80;99.90;;;;;;5036081;28;19996;-72
2022/03/06 03:53:19;;;;;;;;;;;-6.80;99.90;;;;;;5039552;28;19955;-71
2022/03/06 03:55:44;;;;;;;;;;;-6.90;99.90;;;;;;5046914;28;19945;-72
2022/03/06 03:58:09;;;;;;;;;;;-7.00;99.90;;;;;;5037014;28;20358;-72
2022/03/06 04:00:35;;;;;;;;;;;-7.10;99.90;;;;;;5034673;28;19909;-72
2022/03/06 04:03:01;;;;;;;;;;;-7.10;99.90;;;;;;5034719;28;19909;-72
2022/03/06 04:05:26;;;;;;;;;;;-7.10;99.90;;;;;;5034563;28;19909;-72
2022/03/06 04:07:52;;;;;;;;;;;-7.10;99.90;;;;;;5034762;28;20366;-72
2022/03/06 04:10:17;;;;;;;;;;;-7.00;99.90;;;;;;5034665;28;19956;-72
2022/03/06 04:12:43;;;;;;;;;;;-7.00;99.90;;;;;;5034199;28;19910;-72
2022/03/06 04:15:08;;;;;;;;;;;-6.90;99.90;;;;;;5050266;28;19909;-72
2022/03/06 04:17:34;;;;;;;;;;;-7.10;99.90;;;;;;5053728;28;19917;-72
2022/03/06 04:19:59;;;;;;;;;;;-7.00;99.90;;;;;;5053677;28;19909;-72
2022/03/06 04:22:24;;;;;;;;;;;-6.80;99.90;;;;;;5043799;28;19952;-72
2022/03/06 04:24:50;;;;;;;;;;;-6.80;99.90;;;;;;5035562;28;19909;-72
2022/03/06 04:27:15;;;;;;;;;;;-6.80;99.90;;;;;;5034447;28;19963;-72
2022/03/06 04:29:41;;;;;;;;;;;-6.70;99.90;;;;;;5034072;28;20265;-72
2022/03/06 04:32:07;;;;;;;;;;;-6.60;99.90;;;;;;5034370;28;20008;-72
2022/03/06 04:34:32;;;;;;;;;;;-6.40;99.90;;;;;;5034013;28;20285;-72
2022/03/06 04:36:58;;;;;;;;;;;-6.40;99.90;;;;;;5043914;28;19933;-71
2022/03/06 04:39:23;;;;;;;;;;;-6.40;99.90;;;;;;5047080;28;19968;-71
2022/03/06 04:41:48;;;;;;;;;;;-6.70;99.90;;;;;;5036675;28;20420;-72
2022/03/06 04:44:14;;;;;;;;;;;-6.90;99.90;;;;;;5033203;28;19991;-72
2022/03/06 04:46:40;;;;;;;;;;;-7.00;99.90;;;;;;5033967;28;19909;-72
2022/03/06 04:49:05;;;;;;;;;;;-6.90;99.90;;;;;;5033979;28;19924;-72
2022/03/06 04:51:31;;;;;;;;;;;-6.90;99.90;;;;;;5039870;28;19999;-72
2022/03/06 04:53:56;;;;;;;;;;;-6.90;99.90;;;;;;5048025;28;19909;-72
2022/03/06 04:56:22;;;;;;;;;;;-6.70;99.90;;;;;;5033877;28;19971;-72
2022/03/06 04:58:47;;;;;;;;;;;-6.80;99.90;;;;;;5033616;28;19976;-72
2022/03/06 05:01:13;;;;;;;;;;;-7.00;99.90;;;;;;5033662;28;19947;-72
2022/03/06 05:03:38;;;;;;;;;;;-7.00;99.90;;;;;;5039008;28;20357;-72
2022/03/06 05:06:04;;;;;;;;;;;-6.90;99.90;;;;;;5035308;28;19917;-72
2022/03/06 05:08:29;;;;;;;;;;;-6.90;99.90;;;;;;5032333;28;19909;-72
2022/03/06 05:10:55;;;;;;;;;;;-6.80;99.90;;;;;;5033554;28;19909;-72
2022/03/06 05:13:22;;;;;;;;;;;-6.80;99.90;;;;;;5033147;28;19909;-72
2022/03/06 05:15:47;;;;;;;;;;;-6.80;99.90;;;;;;5033322;28;19923;-72
2022/03/06 05:18:13;;;;;;;;;;;-6.70;99.90;;;;;;5033332;28;19913;-72
2022/03/06 05:20:38;;;;;;;;;;;-6.90;99.90;;;;;;5036565;28;20055;-72
2022/03/06 05:23:04;;;;;;;;;;;-7.00;99.90;;;;;;5039738;28;19909;-71
2022/03/06 05:25:30;;;;;;;;;;;-7.00;99.90;;;;;;5036869;28;19909;-72
2022/03/06 05:27:55;;;;;;;;;;;-6.90;99.90;;;;;;5033072;28;20398;-72
2022/03/06 05:30:21;;;;;;;;;;;-6.90;99.90;;;;;;5033184;28;20394;-72
2022/03/06 05:32:47;;;;;;;;;;;-6.80;99.90;;;;;;5032976;28;19913;-72
2022/03/06 05:35:12;;;;;;;;;;;-6.80;99.90;;;;;;5032885;28;19955;-72
2022/03/06 05:37:38;;;;;;;;;;;-6.80;99.90;;;;;;5031971;28;19963;-72
2022/03/06 05:40:04;;;;;;;;;;;-6.90;99.90;;;;;;5032492;28;19909;-72
2022/03/06 05:42:30;;;;;;;;;;;-6.90;99.90;;;;;;5032452;28;20329;-72
2022/03/06 05:44:55;;;;;;;;;;;-6.80;99.90;;;;;;5030708;28;19960;-73
2022/03/06 05:47:21;;;;;;;;;;;-6.80;99.90;;;;;;5032251;28;19909;-73
2022/03/06 05:49:46;;;;;;;;;;;-6.80;99.90;;;;;;5032212;28;19910;-73
2022/03/06 05:52:12;;;;;;;;;;;-6.70;99.90;;;;;;5041570;28;20008;-73
2022/03/06 05:54:37;;;;;;;;;;;-6.90;99.90;;;;;;5033282;28;19966;-73
2022/03/06 05:57:03;;;;;;;;;;;-6.90;99.90;;;;;;5030354;28;20362;-73
2022/03/06 05:59:29;;;;;;;;;;;-7.00;99.90;;;;;;5051530;28;19917;-73
2022/03/06 06:01:55;;;;;;;;;;;-7.10;99.90;;;;;;5051051;28;19913;-73
2022/03/06 06:04:20;;;;;;;;;;;-7.00;99.90;;;;;;5051173;28;20384;-73
2022/03/06 06:06:46;;;;;;;;;;;-6.90;99.90;;;;;;5051140;28;20369;-73
2022/03/06 06:09:11;;;;;;;;;;;-6.80;99.90;;;;;;5050974;28;19912;-72
2022/03/06 06:11:37;;;;;;;;;;;-6.80;99.90;;;;;;5050827;28;19919;-72
2022/03/06 06:14:03;;;;;;;;;;;-6.80;99.90;;;;;;5050556;28;19944;-72
2022/03/06 06:16:29;;;;;;;;;;;-6.70;99.90;;;;;;5045492;28;20354;-72
2022/03/06 06:18:55;;;;;;;;;;;-6.60;99.90;;;;;;5049405;28;19913;-72
2022/03/06 06:21:20;;;;;;;;;;;-6.50;99.90;;;;;;5041271;28;20383;-72
2022/03/06 06:23:46;;;;;;;;;;;-6.70;99.90;;;;;;5045345;28;20374;-72
2022/03/06 06:26:12;;;;;;;;;;;-6.80;99.90;;;;;;5034268;28;20389;-72
2022/03/06 06:28:37;;;;;;;;;;;-6.80;99.90;;;;;;5031788;28;20328;-72
2022/03/06 06:31:04;;;;;;;;;;;-6.60;99.90;;;;;;5031863;28;19909;-72
2022/03/06 06:33:29;;;;;;;;;;;-6.30;99.90;;;;;;5031468;28;19910;-72
2022/03/06 06:35:55;;;;;;;;;;;-6.20;99.90;;;;;;5031876;28;19912;-72
2022/03/06 06:38:21;;;;;;;;;;;-6.00;99.90;;;;;;5031661;28;19917;-72
2022/03/06 06:40:49;;;;;;;;;;;-5.90;99.90;;;;;;5031808;28;19909;-72
2022/03/06 06:43:15;;;;;;;;;;;-5.90;99.90;;;;;;5031312;28;19962;-72
2022/03/06 06:45:41;;;;;;;;;;;-6.00;99.90;;;;;;5031766;28;19920;-73
2022/03/06 06:48:06;;;;;;;;;;;-5.90;99.90;;;;;;5031742;28;19909;-72
2022/03/06 06:50:32;;;;;;;;;;;-5.80;99.90;;;;;;5030369;28;19917;-72
2022/03/06 06:52:57;;;;;;;;;;;-5.60;99.90;;;;;;5037062;28;20297;-72
2022/03/06 06:55:23;;;;;;;;;;;-5.50;99.90;;;;;;5050473;28;20277;-72
2022/03/06 06:57:49;;;;;;;;;;;-5.50;99.90;;;;;;5050427;28;19916;-72
2022/03/06 07:00:14;;;;;;;;;;;-5.60;99.90;;;;;;5050861;28;20583;-72
2022/03/06 07:02:40;;;;;;;;;;;-5.60;99.90;;;;;;5049832;28;19908;-72
2022/03/06 07:05:06;;;;;;;;;;;-5.50;99.90;;;;;;5036977;28;20313;-74
2022/03/06 07:07:31;;;;;;;;;;;-5.40;99.90;;;;;;5034885;28;19920;-73
2022/03/06 07:09:57;;;;;;;;;;;-5.30;99.90;;;;;;5037180;28;19913;-74
2022/03/06 07:12:23;;;;;;;;;;;-5.00;99.90;;;;;;5036216;28;19909;-74
2022/03/06 07:14:48;;;;;;;;;;;-4.60;99.90;;;;;;5055334;28;19908;-74
2022/03/06 07:17:14;;;;;;;;;;;-4.70;99.90;;;;;;5054262;28;20332;-74
2022/03/06 07:19:39;;;;;;;;;;;-4.50;99.90;;;;;;5055335;28;19920;-74
2022/03/06 07:22:05;;;;;;;;;;;-4.30;99.90;;;;;;5047427;28;19917;-74
2022/03/06 07:24:30;;;;;;;;;;;-4.20;99.90;;;;;;5039266;28;19909;-74
2022/03/06 07:26:56;;;;;;;;;;;-4.10;99.90;;;;;;5035804;28;19909;-74
2022/03/06 07:29:21;;;;;;;;;;;-3.90;99.90;;;;;;5036513;28;19909;-74
2022/03/06 07:31:47;;;;;;;;;;;-3.80;99.90;;;;;;5036584;28;19913;-74
2022/03/06 07:34:12;;;;;;;;;;;-3.70;99.90;;;;;;5036011;28;19916;-74
2022/03/06 07:36:38;;;;;;;;;;;-3.40;99.90;;;;;;5036595;28;19913;-74
2022/03/06 07:39:03;;;;;;;;;;;-3.30;99.90;;;;;;5036590;28;19919;-72
2022/03/06 07:41:29;;;;;;;;;;;-3.20;99.90;;;;;;5036730;28;19916;-72
2022/03/06 07:43:54;;;;;;;;;;;-3.10;99.90;;;;;;5036099;28;19910;-73
2022/03/06 07:46:20;;;;;;;;;;;-2.90;99.90;;;;;;5036354;28;19955;-73
2022/03/06 07:48:45;;;;;;;;;;;-2.50;99.90;;;;;;5036751;28;19967;-74
2022/03/06 07:51:11;;;;;;;;;;;-2.40;99.90;;;;;;5037396;28;19955;-73
2022/03/06 07:53:36;;;;;;;;;;;-2.20;99.90;;;;;;5046129;28;20386;-73
2022/03/06 07:56:02;;;;;;;;;;;-2.10;99.90;;;;;;5039435;28;19955;-72
2022/03/06 07:58:27;;;;;;;;;;;-2.00;99.90;;;;;;5035666;28;20336;-73
2022/03/06 08:00:53;;;;;;;;;;;-1.80;99.90;;;;;;5035251;28;19913;-73
2022/03/06 08:03:18;;;;;;;;;;;-1.70;99.90;;;;;;5035053;28;19917;-73
2022/03/06 08:05:44;;;;;;;;;;;-1.70;99.90;;;;;;5035774;28;20614;-73
2022/03/06 08:08:09;;;;;;;;;;;-1.50;99.90;;;;;;5034927;28;19913;-73
2022/03/06 08:10:35;;;;;;;;;;;-1.30;99.90;;;;;;5035590;28;19909;-74
2022/03/06 08:13:00;;;;;;;;;;;-1.10;99.90;;;;;;5036585;28;19909;-73
2022/03/06 08:15:26;;;;;;;;;;;-0.90;99.90;;;;;;5035757;28;19913;-74
2022/03/06 08:17:51;;;;;;;;;;;-0.80;99.90;;;;;;5041240;28;19912;-72
2022/03/06 08:20:17;;;;;;;;;;;-0.30;99.90;;;;;;5035386;28;20377;-73
2022/03/06 08:22:42;;;;;;;;;;;1.70;99.40;;;;;;5044229;28;19909;-72
2022/03/06 08:25:08;;;;;;;;;;;3.60;92.90;;;;;;5036995;28;19964;-73
2022/03/06 08:27:34;;;;;;;;;;;4.90;88.10;;;;;;5035541;28;19913;-72
2022/03/06 08:29:59;;;;;;;;;;;5.30;82.20;;;;;;5036199;28;19909;-73
2022/03/06 08:32:25;;;;;;;;;;;5.30;82.50;;;;;;5053713;28;19908;-73
2022/03/06 08:34:51;;;;;;;;;;;6.20;81.60;;;;;;5054553;28;20400;-72
2022/03/06 08:37:20;;;;;;;;;;;6.60;75.90;;;;;;5055127;28;19909;-72
2022/03/06 08:39:46;;;;;;;;;;;6.90;77.00;;;;;;5054675;28;19967;-72
2022/03/06 08:42:12;;;;;;;;;;;6.90;72.90;;;;;;5055053;28;19908;-72
2022/03/06 08:44:37;;;;;;;;;;;5.60;74.20;;;;;;5054824;28;19912;-73
2022/03/06 08:47:03;;;;;;;;;;;6.40;74.70;;;;;;5055003;28;19916;-73
2022/03/06 08:49:28;;;;;;;;;;;6.20;75.20;;;;;;5054512;28;19952;-72
2022/03/06 08:51:54;;;;;;;;;;;6.80;74.20;;;;;;5053048;28;19913;-73
2022/03/06 08:54:20;;;;;;;;;;;7.30;70.50;;;;;;5039976;28;20262;-73
2022/03/06 08:56:46;;;;;;;;;;;7.30;70.80;;;;;;5035629;28;19932;-72
2022/03/06 08:59:12;;;;;;;;;;;7.70;70.50;;;;;;5035510;28;19913;-73
2022/03/06 09:01:38;;;;;;;;;;;7.90;68.70;;;;;;5035232;28;20429;-73
2022/03/06 09:04:03;;;;;;;;;;;8.30;67.20;;;;;;5035049;28;19909;-73
2022/03/06 09:06:29;;;;;;;;;;;8.40;64.40;;;;;;5033647;28;19924;-73
2022/03/06 09:08:54;;;;;;;;;;;8.20;67.10;;;;;;5034428;28;19916;-73
2022/03/06 09:11:20;;;;;;;;;;;9.30;64.60;;;;;;5041001;28;19955;-72
2022/03/06 09:13:45;;;;;;;;;;;9.90;63.60;;;;;;5035038;28;19940;-72
2022/03/06 09:16:11;;;;;;;;;;;10.00;59.60;;;;;;5035209;28;19967;-72
2022/03/06 09:18:36;;;;;;;;;;;10.10;60.50;;;;;;5033271;28;19913;-73
2022/03/06 09:21:02;;;;;;;;;;;9.40;58.20;;;;;;5036464;28;19909;-72
2022/03/06 09:23:28;;;;;;;;;;;8.50;61.80;;;;;;5047964;28;19974;-73
2022/03/06 09:25:53;;;;;;;;;;;10.20;59.10;;;;;;5040957;28;20278;-73
2022/03/06 09:28:19;;;;;;;;;;;8.80;57.00;;;;;;5034433;28;19992;-73
2022/03/06 09:30:45;;;;;;;;;;;9.60;60.30;;;;;;5034399;28;20391;-73
2022/03/06 09:33:10;;;;;;;;;;;9.10;61.20;;;;;;5034163;28;19959;-73
2022/03/06 09:35:36;;;;;;;;;;;9.90;58.90;;;;;;5034659;28;19924;-73
2022/03/06 09:38:01;;;;;;;;;;;9.90;57.90;;;;;;5032916;28;19917;-73
2022/03/06 09:40:27;;;;;;;;;;;9.40;57.80;;;;;;5034016;28;19961;-73
2022/03/06 09:42:53;;;;;;;;;;;10.10;57.80;;;;;;5033773;28;20000;-75
2022/03/06 09:45:21;;;;;;;;;;;12.10;53.80;;;;;;5033477;28;19989;-74
2022/03/06 09:47:46;;;;;;;;;;;11.40;52.80;;;;;;5033388;28;19909;-73
2022/03/06 09:50:13;;;;;;;;;;;11.10;54.40;;;;;;5033763;28;19916;-74
2022/03/06 09:52:38;;;;;;;;;;;11.00;51.70;;;;;;5040175;28;19955;-73
2022/03/06 09:55:04;;;;;;;;;;;10.50;51.20;;;;;;5033809;28;19913;-73
2022/03/06 09:57:30;;;;;;;;;;;11.80;52.20;;;;;;5033259;28;19909;-73
2022/03/06 09:59:55;;;;;;;;;;;12.40;50.60;;;;;;5033155;28;20376;-74
2022/03/06 10:02:21;;;;;;;;;;;12.40;50.00;;;;;;5032980;28;19913;-73
2022/03/06 10:04:46;;;;;;;;;;;11.00;49.20;;;;;;5032977;28;19909;-74
2022/03/06 10:07:13;;;;;;;;;;;12.20;51.70;;;;;;5033043;28;19909;-74
2022/03/06 10:09:43;;;;;;;;;;;12.70;49.40;;;;;;5033269;28;19915;-74
2022/03/06 10:12:19;;;;;;;;;;;11.90;49.80;;;;;;5033307;28;20278;-74
2022/03/06 10:14:45;;;;;;;;;;;12.60;49.70;;;;;;5032523;28;19916;-73
2022/03/06 10:17:20;;;;;;;;;;;12.00;47.60;;;;;;5036635;28;20297;-73
2022/03/06 10:20:05;;;;;;;;;;;12.30;48.80;;;;;;5032974;28;20372;-73
2022/03/06 10:22:32;;;;;;;;;;;11.00;48.70;;;;;;5043429;28;20274;-73
2022/03/06 10:24:59;;;;;;;;;;;12.90;48.50;;;;;;5035624;28;20329;-73
2022/03/06 10:27:46;;;;;;;;;;;14.80;46.60;;;;;;5033107;28;19959;-73
2022/03/06 10:30:21;;;;;;;;;;;14.90;45.50;;;;;;5032735;28;19952;-72
2022/03/06 10:32:46;;;;;;;;;;;10.30;47.40;;;;;;5032698;28;20007;-73
2022/03/06 10:35:12;;;;;;;;;;;9.70;50.70;;;;;;5032427;28;20002;-73
2022/03/06 10:37:37;;;;;;;;;;;10.90;48.80;;;;;;5032353;28;19920;-73
2022/03/06 10:40:03;;;;;;;;;;;12.50;45.80;;;;;;5033883;28;19913;-73
2022/03/06 10:42:28;;;;;;;;;;;13.40;44.30;;;;;;5034355;28;20000;-73
2022/03/06 10:44:54;;;;;;;;;;;13.10;43.70;;;;;;5048196;28;19917;-73
2022/03/06 10:47:19;;;;;;;;;;;14.70;42.70;;;;;;5051033;28;20362;-73
2022/03/06 10:49:58;;;;;;;;;;;11.00;45.30;;;;;;5050822;28;19915;-73
2022/03/06 10:52:23;;;;;;;;;;;7.30;55.40;;;;;;5034860;28;19910;-73
2022/03/06 10:54:50;;;;;;;;;;;7.00;58.30;;;;;;5035861;28;19909;-72
2022/03/06 10:57:15;;;;;;;;;;;6.70;57.10;;;;;;5031796;28;20008;-73
2022/03/06 10:59:42;;;;;;;;;;;6.00;58.80;;;;;;5031641;28;20414;-73
2022/03/06 11:02:09;;;;;;;;;;;6.00;59.30;;;;;;5031703;28;20557;-73
2022/03/06 11:04:35;;;;;;;;;;;10.50;52.10;;;;;;5032321;28;20423;-73
2022/03/06 11:07:01;;;;;;;;;;;6.90;55.50;;;;;;5043087;28;19936;-73
2022/03/06 11:09:27;;;;;;;;;;;7.30;57.60;;;;;;5032185;28;20387;-73
2022/03/06 11:11:52;;;;;;;;;;;6.20;56.60;;;;;;5032046;28;20011;-73
2022/03/06 11:14:18;;;;;;;;;;;5.30;59.30;;;;;;5034811;28;19916;-73
2022/03/06 11:16:44;;;;;;;;;;;4.90;61.80;;;;;;5030703;28;20394;-73
2022/03/06 11:19:10;;;;;;;;;;;8.50;56.80;;;;;;5031658;28;19970;-73
2022/03/06 11:21:38;;;;;;;;;;;10.60;49.40;;;;;;5042498;28;19909;-73
2022/03/06 11:24:15;;;;;;;;;;;10.60;50.40;;;;;;5034929;28;19909;-73
2022/03/06 11:26:40;;;;;;;;;;;10.60;49.20;;;;;;5031757;28;19935;-73
2022/03/06 11:29:13;;;;;;;;;;;13.60;47.10;;;;;;5031740;28;19956;-73
2022/03/06 11:31:55;;;;;;;;;;;12.20;45.00;;;;;;5030550;28;19909;-73
2022/03/06 11:34:31;;;;;;;;;;;7.10;55.10;;;;;;5050595;28;19913;-73
2022/03/06 11:36:57;;;;;;;;;;;5.90;58.90;;;;;;5051096;28;20358;-73
2022/03/06 11:39:28;;;;;;;;;;;6.00;60.10;;;;;;5051341;28;19974;-73
2022/03/06 11:41:54;;;;;;;;;;;7.40;58.00;;;;;;5051680;28;19909;-73
2022/03/06 11:44:33;;;;;;;;;;;7.10;56.90;;;;;;5051148;28;19954;-73
2022/03/06 11:46:58;;;;;;;;;;;6.10;58.00;;;;;;5053284;28;19913;-73
2022/03/06 11:49:32;;;;;;;;;;;5.30;61.00;;;;;;5052281;28;19916;-73
2022/03/06 11:51:57;;;;;;;;;;;5.20;61.20;;;;;;5046104;28;20345;-73
2022/03/06 11:54:24;;;;;;;;;;;5.20;61.50;;;;;;5041522;28;19913;-73
2022/03/06 11:56:55;;;;;;;;;;;5.10;61.80;;;;;;5036768;28;20787;-73
2022/03/06 11:59:25;;;;;;;;;;;5.70;61.70;;;;;;5034642;28;20281;-72
2022/03/06 12:01:55;;;;;;;;;;;5.70;60.10;;;;;;5035276;28;19954;-72
2022/03/06 12:04:21;;;;;;;;;;;6.00;59.90;;;;;;5033368;28;19913;-72
2022/03/06 12:06:49;;;;;;;;;;;5.90;59.70;;;;;;5035729;28;19910;-72
2022/03/06 12:09:16;;;;;;;;;;;5.60;59.60;;;;;;5035922;28;20054;-72
2022/03/06 12:11:42;;;;;;;;;;;5.40;59.70;;;;;;5034936;28;19916;-72
2022/03/06 12:14:21;;;;;;;;;;;5.80;60.30;;;;;;5034070;28;20301;-72
2022/03/06 12:17:10;;;;;;;;;;;5.70;59.90;;;;;;5052552;28;19923;-72
2022/03/06 12:19:45;;;;;;;;;;;5.50;59.60;;;;;;5055847;28;19917;-72
2022/03/06 12:22:10;;;;;;;;;;;5.90;60.30;;;;;;5040935;28;20050;-72
2022/03/06 12:24:36;;;;;;;;;;;5.80;60.00;;;;;;5040143;28;20417;-72
2022/03/06 12:27:12;;;;;;;;;;;5.70;59.00;;;;;;5034441;28;19909;-72
2022/03/06 12:29:46;;;;;;;;;;;5.30;59.70;;;;;;5034363;28;19955;-72
2022/03/06 12:32:24;;;;;;;;;;;5.40;59.40;;;;;;5034281;28;19910;-72
2022/03/06 12:35:08;;;;;;;;;;;5.40;59.90;;;;;;5034118;28;19940;-72
2022/03/06 12:37:36;;;;;;;;;;;5.30;60.90;;;;;;5047953;28;19956;-72
2022/03/06 12:40:07;;;;;;;;;;;5.20;61.10;;;;;;5053282;28;19913;-72
2022/03/06 12:42:34;;;;;;;;;;;5.10;60.60;;;;;;5053186;28;19908;-72
2022/03/06 12:45:04;;;;;;;;;;;5.40;60.10;;;;;;5053008;28;19916;-72
2022/03/06 12:47:30;;;;;;;;;;;4.60;61.70;;;;;;5052908;28;19909;-72
2022/03/06 12:49:56;;;;;;;;;;;4.10;61.80;;;;;;5053064;28;19978;-71
2022/03/06 12:52:28;;;;;;;;;;;3.90;62.40;;;;;;5042999;28;19915;-72
2022/03/06 12:54:55;;;;;;;;;;;4.00;62.70;;;;;;5035329;28;20481;-72
2022/03/06 12:57:21;;;;;;;;;;;4.00;63.10;;;;;;5033909;28;19909;-72
2022/03/06 12:59:48;;;;;;;;;;;4.20;62.80;;;;;;5033836;28;19913;-72
2022/03/06 13:02:17;;;;;;;;;;;4.30;62.40;;;;;;5033561;28;19909;-72
2022/03/06 13:04:49;;;;;;;;;;;4.40;62.20;;;;;;5033089;28;19909;-72
2022/03/06 13:07:15;;;;;;;;;;;4.30;62.40;;;;;;5037969;28;19913;-72
2022/03/06 13:09:41;;;;;;;;;;;4.50;61.40;;;;;;5037339;28;19909;-72
2022/03/06 13:12:06;;;;;;;;;;;4.40;60.50;;;;;;5035857;28;19909;-72
2022/03/06 13:14:36;;;;;;;;;;;4.20;61.60;;;;;;5052420;28;19909;-72
2022/03/06 13:17:06;;;;;;;;;;;4.40;61.20;;;;;;5052371;28;19928;-72
2022/03/06 13:19:45;;;;;;;;;;;4.30;61.50;;;;;;5052047;28;20012;-72
2022/03/06 13:22:12;;;;;;;;;;;4.20;61.40;;;;;;5038689;28;19916;-72
2022/03/06 13:24:39;;;;;;;;;;;4.00;60.20;;;;;;5043281;28;19913;-72
2022/03/06 13:27:05;;;;;;;;;;;4.40;61.50;;;;;;5032281;28;19959;-72
2022/03/06 13:29:31;;;;;;;;;;;4.80;60.10;;;;;;5048598;28;19909;-72
2022/03/06 13:31:56;;;;;;;;;;;4.80;58.50;;;;;;5051834;28;19962;-72
2022/03/06 13:34:22;;;;;;;;;;;5.00;59.00;;;;;;5051681;28;20560;-72
2022/03/06 13:36:47;;;;;;;;;;;5.20;60.00;;;;;;5052241;28;20011;-72
2022/03/06 13:39:14;;;;;;;;;;;5.20;58.60;;;;;;5051894;28;19912;-73
2022/03/06 13:42:01;;;;;;;;;;;5.90;60.00;;;;;;5052053;28;19908;-72
2022/03/06 13:44:27;;;;;;;;;;;5.90;58.60;;;;;;5050644;28;19909;-72
2022/03/06 13:46:53;;;;;;;;;;;5.50;58.60;;;;;;5052071;28;19909;-72
2022/03/06 13:49:20;;;;;;;;;;;5.20;59.30;;;;;;5051973;28;20396;-72
2022/03/06 13:51:46;;;;;;;;;;;5.00;60.50;;;;;;5044297;28;19916;-72
2022/03/06 13:54:11;;;;;;;;;;;5.10;60.50;;;;;;5047900;28;19909;-72
2022/03/06 13:56:42;;;;;;;;;;;5.40;60.10;;;;;;5033233;28;19993;-72
2022/03/06 13:59:11;;;;;;;;;;;5.40;58.00;;;;;;5032581;28;19913;-73
2022/03/06 14:01:37;;;;;;;;;;;5.30;58.10;;;;;;5032598;28;19916;-72
2022/03/06 14:04:04;;;;;;;;;;;5.50;58.20;;;;;;5031199;28;19988;-72
2022/03/06 14:06:48;;;;;;;;;;;5.40;57.80;;;;;;5037181;28;19909;-72
2022/03/06 14:09:17;;;;;;;;;;;5.80;59.00;;;;;;5032528;28;19909;-72
2022/03/06 14:11:43;;;;;;;;;;;5.70;57.70;;;;;;5032323;28;19915;-72
2022/03/06 14:14:08;;;;;;;;;;;5.40;58.10;;;;;;5031973;28;19909;-72
2022/03/06 14:16:34;;;;;;;;;;;5.30;59.50;;;;;;5030842;28;19967;-72
2022/03/06 14:19:01;;;;;;;;;;;5.10;59.10;;;;;;5031750;28;19913;-73